Time;durP1;ratioP1;P1;durP2;ratioP2;P2;SDS_P1;SDS_P2;PMS_P1;PMS_P2;Temp;Humidity;BMP_temperature;BMP_pressure;BME280_temperature;BME280_humidity;BME280_pressure;Samples;Min_cycle;Max_cycle;Signal;HPM_P1;HPM_P2
2021/12/30 00:01:21;;;;;;;44.58;6.22;;;;;;;;;;5067909;28;20070;-79
2021/12/30 00:03:48;;;;;;;39.30;5.63;;;;;;;;;;5051371;28;20408;-79
2021/12/30 00:06:17;;;;;;;41.40;5.38;;;;;;;;;;5051883;28;20124;-79
2021/12/30 00:08:43;;;;;;;45.30;5.38;;;;;;;;;;5051883;28;20051;-80
2021/12/30 00:11:09;;;;;;;32.35;5.20;;;;;;;;;;5068683;28;20036;-79
2021/12/30 00:13:35;;;;;;;33.88;4.28;;;;;;;;;;5068377;28;20135;-79
2021/12/30 00:16:02;;;;;;;42.80;5.50;;;;;;;;;;5068732;28;20040;-79
2021/12/30 00:18:29;;;;;;;38.60;5.03;;;;;;;;;;5068585;28;20045;-79
2021/12/30 00:20:55;;;;;;;47.20;5.68;;;;;;;;;;5051420;28;20072;-79
2021/12/30 00:23:21;;;;;;;35.55;5.70;;;;;;;;;;5068411;28;20125;-79
2021/12/30 00:25:48;;;;;;;30.95;5.35;;;;;;;;;;5068493;28;20132;-79
2021/12/30 00:28:16;;;;;;;32.40;4.28;;;;;;;;;;5068467;28;20055;-79
2021/12/30 00:30:42;;;;;;;32.83;5.30;;;;;;;;;;5068055;28;20055;-78
2021/12/30 00:33:09;;;;;;;33.30;4.75;;;;;;;;;;5068562;28;20523;-82
2021/12/30 00:35:36;;;;;;;32.42;4.47;;;;;;;;;;5068413;28;20049;-82
2021/12/30 00:38:02;;;;;;;43.42;5.70;;;;;;;;;;5068729;28;20090;-82
2021/12/30 00:40:28;;;;;;;43.58;5.63;;;;;;;;;;5068253;28;20052;-82
2021/12/30 00:42:55;;;;;;;30.30;4.15;;;;;;;;;;5068603;28;20713;-82
2021/12/30 00:45:21;;;;;;;40.67;4.88;;;;;;;;;;5073540;28;20045;-82
2021/12/30 00:47:47;;;;;;;31.52;3.85;;;;;;;;;;5071878;28;20427;-81
2021/12/30 00:50:13;;;;;;;30.92;5.85;;;;;;;;;;5055146;28;20072;-82
2021/12/30 00:52:39;;;;;;;39.20;4.60;;;;;;;;;;5073276;28;20051;-81
2021/12/30 00:55:06;;;;;;;35.38;4.82;;;;;;;;;;5072437;28;20128;-79
2021/12/30 00:57:32;;;;;;;39.58;5.25;;;;;;;;;;5072704;28;20085;-79
2021/12/30 00:59:58;;;;;;;35.53;4.80;;;;;;;;;;5055246;28;20049;-79
2021/12/30 01:02:24;;;;;;;37.97;5.05;;;;;;;;;;5072857;28;20036;-79
2021/12/30 01:04:50;;;;;;;35.45;4.38;;;;;;;;;;5071367;28;20574;-79
2021/12/30 01:07:16;;;;;;;35.95;4.63;;;;;;;;;;5071773;28;20567;-81
2021/12/30 01:09:42;;;;;;;35.40;4.75;;;;;;;;;;5055132;28;20059;-81
2021/12/30 01:12:09;;;;;;;34.22;5.15;;;;;;;;;;5071499;28;20064;-79
2021/12/30 01:14:36;;;;;;;38.53;5.30;;;;;;;;;;5071795;28;20053;-79
2021/12/30 01:17:15;;;;;;;36.90;4.82;;;;;;;;;;5071628;28;20496;-79
2021/12/30 01:19:44;;;;;;;31.23;5.65;;;;;;;;;;5056287;28;20476;-79
2021/12/30 01:22:18;;;;;;;38.13;4.57;;;;;;;;;;5054820;28;20045;-81
2021/12/30 01:24:44;;;;;;;35.47;4.85;;;;;;;;;;5054714;28;20048;-82
2021/12/30 01:27:10;;;;;;;37.00;4.72;;;;;;;;;;5071328;28;20146;-82
2021/12/30 01:29:37;;;;;;;35.00;4.38;;;;;;;;;;5054727;28;20132;-82
2021/12/30 01:32:03;;;;;;;32.08;4.82;;;;;;;;;;5071774;28;20055;-82
2021/12/30 01:34:29;;;;;;;39.17;5.15;;;;;;;;;;5054611;28;20484;-82
2021/12/30 01:36:59;;;;;;;42.40;5.00;;;;;;;;;;5054415;28;20080;-82
2021/12/30 01:39:25;;;;;;;41.60;5.57;;;;;;;;;;5071049;28;20052;-82
2021/12/30 01:41:51;;;;;;;42.20;5.50;;;;;;;;;;5071085;28;20493;-82
2021/12/30 01:44:17;;;;;;;40.75;5.63;;;;;;;;;;5070965;28;20048;-82
2021/12/30 01:46:44;;;;;;;48.80;6.47;;;;;;;;;;5072235;28;20032;-83
2021/12/30 01:49:12;;;;;;;40.40;6.63;;;;;;;;;;5071022;28;20052;-79
2021/12/30 01:51:38;;;;;;;53.35;7.60;;;;;;;;;;5070799;28;20045;-79
2021/12/30 01:54:05;;;;;;;46.40;7.15;;;;;;;;;;5070766;28;20036;-79
2021/12/30 01:56:31;;;;;;;42.25;7.38;;;;;;;;;;5070143;28;20041;-81
2021/12/30 01:58:57;;;;;;;57.05;8.43;;;;;;;;;;5070484;28;20036;-82
2021/12/30 02:01:24;;;;;;;49.10;8.75;;;;;;;;;;5070978;28;20079;-79
2021/12/30 02:03:50;;;;;;;48.45;8.02;;;;;;;;;;5070345;28;20048;-79
2021/12/30 02:06:16;;;;;;;52.10;9.48;;;;;;;;;;5070883;28;20039;-82
2021/12/30 02:08:43;;;;;;;55.03;9.65;;;;;;;;;;5053997;28;20079;-81
2021/12/30 02:11:10;;;;;;;59.65;8.85;;;;;;;;;;5054051;28;20044;-81
2021/12/30 02:13:36;;;;;;;53.03;9.55;;;;;;;;;;5071105;28;20091;-82
2021/12/30 02:16:02;;;;;;;65.45;11.07;;;;;;;;;;5070500;28;20094;-81
2021/12/30 02:18:29;;;;;;;57.63;10.90;;;;;;;;;;5071501;28;20045;-82
2021/12/30 02:20:57;;;;;;;70.38;11.68;;;;;;;;;;5053345;28;20066;-82
2021/12/30 02:23:23;;;;;;;66.18;11.77;;;;;;;;;;5070674;28;20472;-82
2021/12/30 02:25:50;;;;;;;60.90;12.32;;;;;;;;;;5070197;28;20076;-79
2021/12/30 02:28:17;;;;;;;69.57;13.70;;;;;;;;;;5070279;28;20043;-79
2021/12/30 02:30:44;;;;;;;64.95;14.38;;;;;;;;;;5069791;28;20036;-82
2021/12/30 02:33:10;;;;;;;83.95;14.73;;;;;;;;;;5053987;28;20056;-82
2021/12/30 02:35:37;;;;;;;62.72;13.93;;;;;;;;;;5070055;28;20120;-83
2021/12/30 02:38:03;;;;;;;74.45;14.18;;;;;;;;;;5069579;28;20040;-82
2021/12/30 02:40:32;;;;;;;60.97;13.98;;;;;;;;;;5037058;28;20082;-82
2021/12/30 02:42:59;;;;;;;68.97;13.50;;;;;;;;;;5052971;28;20040;-82
2021/12/30 02:45:25;;;;;;;64.55;14.25;;;;;;;;;;5070386;28;20052;-79
2021/12/30 02:47:51;;;;;;;68.03;12.80;;;;;;;;;;5071159;28;20048;-82
2021/12/30 02:50:17;;;;;;;77.82;13.18;;;;;;;;;;5070898;28;20044;-82
2021/12/30 02:52:44;;;;;;;60.80;12.48;;;;;;;;;;5068988;28;20041;-82
2021/12/30 02:55:10;;;;;;;63.78;13.02;;;;;;;;;;5069408;28;20036;-79
2021/12/30 02:57:36;;;;;;;60.25;12.20;;;;;;;;;;5068964;28;20419;-79
2021/12/30 03:00:04;;;;;;;62.20;12.13;;;;;;;;;;5068853;28;20040;-79
2021/12/30 03:02:30;;;;;;;63.53;11.13;;;;;;;;;;5064668;28;20043;-82
2021/12/30 03:04:56;;;;;;;62.67;10.32;;;;;;;;;;5067532;28;20048;-82
2021/12/30 03:07:22;;;;;;;55.70;9.90;;;;;;;;;;5051671;28;20076;-82
2021/12/30 03:09:48;;;;;;;56.10;10.55;;;;;;;;;;5052438;28;20044;-82
2021/12/30 03:12:15;;;;;;;65.30;10.38;;;;;;;;;;5069329;28;20569;-82
2021/12/30 03:14:42;;;;;;;56.17;9.85;;;;;;;;;;5052465;28;20091;-82
2021/12/30 03:17:08;;;;;;;57.10;8.60;;;;;;;;;;5052670;28;20056;-79
2021/12/30 03:19:35;;;;;;;58.30;9.45;;;;;;;;;;5069266;28;20567;-81
2021/12/30 03:22:01;;;;;;;54.83;10.27;;;;;;;;;;5067889;28;20040;-82
2021/12/30 03:24:27;;;;;;;52.33;9.23;;;;;;;;;;5052572;28;20431;-82
2021/12/30 03:26:53;;;;;;;60.40;8.82;;;;;;;;;;5068470;28;20048;-82
2021/12/30 03:29:19;;;;;;;51.33;9.45;;;;;;;;;;5068596;28;20267;-82
2021/12/30 03:31:46;;;;;;;51.80;9.23;;;;;;;;;;5068419;28;20047;-82
2021/12/30 03:34:12;;;;;;;64.85;9.90;;;;;;;;;;5070125;28;20052;-79
2021/12/30 03:36:38;;;;;;;49.95;9.27;;;;;;;;;;5069770;28;20036;-82
2021/12/30 03:39:05;;;;;;;58.10;10.15;;;;;;;;;;5070128;28;20037;-82
2021/12/30 03:41:31;;;;;;;56.15;10.95;;;;;;;;;;5051984;28;20045;-83
2021/12/30 03:44:00;;;;;;;59.05;10.18;;;;;;;;;;5068116;28;20047;-82
2021/12/30 03:46:26;;;;;;;57.88;10.80;;;;;;;;;;5068366;28;20066;-82
2021/12/30 03:48:52;;;;;;;62.08;10.25;;;;;;;;;;5068148;28;20389;-82
2021/12/30 03:51:24;;;;;;;52.88;9.80;;;;;;;;;;5068396;28;20498;-82
2021/12/30 03:53:52;;;;;;;63.20;12.70;;;;;;;;;;5068342;28;20120;-82
2021/12/30 03:56:20;;;;;;;56.28;10.68;;;;;;;;;;5051997;28;20102;-79
2021/12/30 03:58:46;;;;;;;62.30;9.75;;;;;;;;;;5068055;28;20047;-79
2021/12/30 04:01:14;;;;;;;69.85;11.98;;;;;;;;;;5068228;28;20123;-79
2021/12/30 04:03:40;;;;;;;75.78;11.65;;;;;;;;;;5067910;28;20546;-83
2021/12/30 04:06:07;;;;;;;74.00;11.38;;;;;;;;;;5068200;28;20044;-83
2021/12/30 04:08:33;;;;;;;78.47;11.43;;;;;;;;;;5102061;28;20131;-82
2021/12/30 04:10:59;;;;;;;69.05;12.00;;;;;;;;;;5068087;28;20484;-83
2021/12/30 04:13:25;;;;;;;70.93;11.38;;;;;;;;;;5051428;28;20102;-82
2021/12/30 04:15:52;;;;;;;65.30;11.48;;;;;;;;;;5067750;28;20045;-82
2021/12/30 04:18:18;;;;;;;78.47;13.45;;;;;;;;;;5067542;28;20041;-83
2021/12/30 04:20:46;;;;;;;76.82;12.60;;;;;;;;;;5084829;28;20679;-79
2021/12/30 04:23:12;;;;;;;69.63;13.52;;;;;;;;;;5067627;28;20414;-83
2021/12/30 04:25:38;;;;;;;58.85;13.38;;;;;;;;;;5069149;28;20442;-83
2021/12/30 04:28:05;;;;;;;68.97;12.32;;;;;;;;;;5051736;28;20037;-82
2021/12/30 04:30:31;;;;;;;63.58;13.38;;;;;;;;;;5067916;28;20040;-83
2021/12/30 04:32:58;;;;;;;69.20;13.23;;;;;;;;;;5067909;28;20059;-79
2021/12/30 04:35:24;;;;;;;60.85;13.20;;;;;;;;;;5068404;28;20060;-80
2021/12/30 04:37:50;;;;;;;70.32;12.85;;;;;;;;;;5069114;28;20044;-79
2021/12/30 04:40:17;;;;;;;58.63;12.35;;;;;;;;;;5068066;28;20119;-79
2021/12/30 04:42:43;;;;;;;61.90;13.20;;;;;;;;;;5067474;28;20033;-79
2021/12/30 04:45:10;;;;;;;61.50;13.32;;;;;;;;;;5051296;28;20468;-79
2021/12/30 04:47:38;;;;;;;57.15;13.63;;;;;;;;;;5067784;28;20119;-83
2021/12/30 04:50:05;;;;;;;59.47;14.27;;;;;;;;;;5067615;28;20051;-79
2021/12/30 04:52:32;;;;;;;62.05;15.05;;;;;;;;;;5067765;28;20587;-79
2021/12/30 04:54:58;;;;;;;67.72;16.15;;;;;;;;;;5050948;28;20044;-79
2021/12/30 04:57:24;;;;;;;76.68;16.45;;;;;;;;;;5069370;28;20041;-79
2021/12/30 04:59:51;;;;;;;79.72;17.40;;;;;;;;;;5067598;28;20071;-79
2021/12/30 05:02:17;;;;;;;89.95;19.17;;;;;;;;;;5059488;28;20144;-79
2021/12/30 05:04:43;;;;;;;93.93;19.40;;;;;;;;;;5050085;28;20041;-79
2021/12/30 05:07:09;;;;;;;94.70;19.35;;;;;;;;;;5066549;28;20136;-79
2021/12/30 05:09:35;;;;;;;86.63;19.02;;;;;;;;;;5067748;28;20140;-79
2021/12/30 05:12:01;;;;;;;85.75;19.10;;;;;;;;;;5050649;28;20049;-79
2021/12/30 05:14:27;;;;;;;97.65;19.42;;;;;;;;;;5051144;28;20049;-79
2021/12/30 05:16:55;;;;;;;81.68;18.50;;;;;;;;;;5067437;28;20040;-82
2021/12/30 05:19:21;;;;;;;94.28;19.42;;;;;;;;;;5067982;28;20045;-79
2021/12/30 05:21:47;;;;;;;92.95;18.52;;;;;;;;;;5034046;28;20033;-79
2021/12/30 05:24:15;;;;;;;85.00;18.65;;;;;;;;;;5068983;28;20080;-78
2021/12/30 05:26:41;;;;;;;92.50;19.23;;;;;;;;;;5067469;28;20059;-79
2021/12/30 05:29:09;;;;;;;90.97;18.58;;;;;;;;;;5067842;28;20472;-79
2021/12/30 05:31:35;;;;;;;93.57;19.48;;;;;;;;;;5070537;28;20495;-79
2021/12/30 05:34:01;;;;;;;87.40;18.17;;;;;;;;;;5071017;28;20044;-82
2021/12/30 05:36:28;;;;;;;91.95;18.40;;;;;;;;;;5054304;28;20124;-82
2021/12/30 05:38:54;;;;;;;116.25;19.85;;;;;;;;;;5070970;28;20442;-82
2021/12/30 05:41:22;;;;;;;107.50;19.13;;;;;;;;;;5054923;28;20157;-82
2021/12/30 05:43:48;;;;;;;109.25;21.40;;;;;;;;;;5070341;28;20449;-79
2021/12/30 05:46:14;;;;;;;102.05;20.02;;;;;;;;;;5054275;28;20177;-79
2021/12/30 05:48:40;;;;;;;120.75;21.38;;;;;;;;;;5053943;28;20045;-78
2021/12/30 05:51:07;;;;;;;110.13;21.65;;;;;;;;;;5070439;28;20549;-82
2021/12/30 05:53:33;;;;;;;122.30;21.25;;;;;;;;;;5070981;28;20048;-81
2021/12/30 05:55:59;;;;;;;114.25;21.08;;;;;;;;;;5071785;28;20054;-82
2021/12/30 05:58:25;;;;;;;116.95;21.65;;;;;;;;;;5072933;28;20099;-82
2021/12/30 06:00:51;;;;;;;108.13;20.73;;;;;;;;;;5072054;28;20052;-82
2021/12/30 06:03:21;;;;;;;114.20;20.45;;;;;;;;;;5072555;28;20044;-81
2021/12/30 06:05:48;;;;;;;103.70;20.13;;;;;;;;;;5071437;28;20104;-84
2021/12/30 06:08:14;;;;;;;94.22;19.00;;;;;;;;;;5054964;28;20043;-82
2021/12/30 06:10:41;;;;;;;98.75;19.33;;;;;;;;;;5071545;28;20048;-78
2021/12/30 06:13:07;;;;;;;84.32;18.80;;;;;;;;;;5071204;28;20067;-78
2021/12/30 06:15:33;;;;;;;77.03;16.27;;;;;;;;;;5072409;28;20095;-79
2021/12/30 06:17:59;;;;;;;80.00;17.45;;;;;;;;;;5071193;28;20044;-83
2021/12/30 06:20:27;;;;;;;80.03;16.98;;;;;;;;;;5070661;28;20440;-82
2021/12/30 06:22:54;;;;;;;69.85;16.05;;;;;;;;;;5070320;28;20508;-79
2021/12/30 06:25:20;;;;;;;62.35;14.55;;;;;;;;;;5070987;28;20162;-79
2021/12/30 06:27:46;;;;;;;60.45;14.77;;;;;;;;;;5069695;28;20131;-83
2021/12/30 06:30:12;;;;;;;57.80;14.10;;;;;;;;;;5069987;28;20085;-78
2021/12/30 06:32:39;;;;;;;53.90;13.68;;;;;;;;;;5070060;28;20041;-78
2021/12/30 06:35:07;;;;;;;55.53;13.88;;;;;;;;;;5070246;28;20119;-78
2021/12/30 06:37:33;;;;;;;50.45;13.13;;;;;;;;;;5070073;28;20059;-78
2021/12/30 06:39:59;;;;;;;49.30;12.93;;;;;;;;;;5069385;28;20085;-79
2021/12/30 06:42:26;;;;;;;45.35;11.52;;;;;;;;;;5069350;28;20051;-78
2021/12/30 06:44:52;;;;;;;39.13;11.63;;;;;;;;;;5070717;28;20451;-78
2021/12/30 06:47:18;;;;;;;37.45;10.68;;;;;;;;;;5053275;28;20055;-83
2021/12/30 06:49:44;;;;;;;34.20;9.15;;;;;;;;;;5071257;28;20048;-82
2021/12/30 06:52:11;;;;;;;32.72;8.70;;;;;;;;;;5054121;28;20072;-82
2021/12/30 06:54:37;;;;;;;23.65;7.10;;;;;;;;;;5069803;28;20468;-78
2021/12/30 06:57:06;;;;;;;27.88;7.47;;;;;;;;;;5070681;28;20041;-78
2021/12/30 06:59:33;;;;;;;18.80;6.10;;;;;;;;;;5053402;28;20553;-77
2021/12/30 07:01:59;;;;;;;16.23;5.13;;;;;;;;;;5068953;28;20106;-78
2021/12/30 07:04:25;;;;;;;15.57;5.28;;;;;;;;;;5069286;28;20044;-78
2021/12/30 07:06:52;;;;;;;19.73;6.18;;;;;;;;;;5068791;28;20076;-78
2021/12/30 07:09:19;;;;;;;15.38;5.32;;;;;;;;;;5052521;28;20119;-77
2021/12/30 07:11:48;;;;;;;14.40;5.07;;;;;;;;;;5068636;28;20543;-78
2021/12/30 07:14:14;;;;;;;14.30;5.53;;;;;;;;;;5069147;28;20351;-83
2021/12/30 07:16:40;;;;;;;14.02;5.15;;;;;;;;;;5052434;28;20124;-82
2021/12/30 07:19:06;;;;;;;11.07;4.97;;;;;;;;;;5069175;28;20040;-84
2021/12/30 07:21:33;;;;;;;13.35;4.95;;;;;;;;;;5052811;28;20392;-83
2021/12/30 07:23:59;;;;;;;14.75;5.63;;;;;;;;;;5052921;28;20146;-82
2021/12/30 07:26:25;;;;;;;14.25;5.40;;;;;;;;;;5052461;28;20059;-83
2021/12/30 07:28:51;;;;;;;15.25;5.38;;;;;;;;;;5052506;28;20419;-83
2021/12/30 07:31:17;;;;;;;10.13;5.30;;;;;;;;;;5052430;28;20040;-83
2021/12/30 07:33:43;;;;;;;13.30;5.15;;;;;;;;;;5052077;28;20041;-83
2021/12/30 07:36:09;;;;;;;13.50;5.88;;;;;;;;;;5070580;28;20071;-83
2021/12/30 07:38:35;;;;;;;17.63;5.95;;;;;;;;;;5052256;28;20137;-84
2021/12/30 07:41:02;;;;;;;16.25;5.60;;;;;;;;;;5052121;28;20178;-83
2021/12/30 07:43:29;;;;;;;17.17;5.82;;;;;;;;;;5068820;28;20051;-83
2021/12/30 07:45:55;;;;;;;17.75;6.05;;;;;;;;;;5070136;28;20052;-83
2021/12/30 07:48:21;;;;;;;19.27;6.22;;;;;;;;;;5052664;28;20094;-83
2021/12/30 07:50:47;;;;;;;16.58;6.18;;;;;;;;;;5068051;28;20048;-84
2021/12/30 07:53:13;;;;;;;19.25;7.72;;;;;;;;;;5067955;28;20050;-83
2021/12/30 07:55:39;;;;;;;20.08;6.75;;;;;;;;;;5068793;28;20047;-83
2021/12/30 07:58:05;;;;;;;18.58;6.43;;;;;;;;;;5067805;28;20040;-83
2021/12/30 08:00:31;;;;;;;16.77;5.63;;;;;;;;;;5068359;28;20056;-83
2021/12/30 08:02:57;;;;;;;21.38;6.20;;;;;;;;;;5068393;28;20040;-82
2021/12/30 08:05:24;;;;;;;19.48;6.95;;;;;;;;;;5068602;28;20059;-84
2021/12/30 08:07:50;;;;;;;22.10;7.35;;;;;;;;;;5068864;28;20076;-83
2021/12/30 08:10:18;;;;;;;19.65;7.40;;;;;;;;;;5070055;28;20047;-83
2021/12/30 08:12:45;;;;;;;27.10;6.72;;;;;;;;;;5067995;28;20060;-84
2021/12/30 08:15:12;;;;;;;16.75;6.07;;;;;;;;;;5035921;28;20377;-83
2021/12/30 08:17:38;;;;;;;17.60;5.63;;;;;;;;;;5069531;28;20067;-83
2021/12/30 08:20:05;;;;;;;22.30;6.10;;;;;;;;;;5067680;28;20068;-82
2021/12/30 08:22:31;;;;;;;19.85;6.05;;;;;;;;;;5068342;28;20047;-82
2021/12/30 08:24:57;;;;;;;14.43;4.95;;;;;;;;;;5068684;28;20484;-82
2021/12/30 08:27:23;;;;;;;19.27;5.10;;;;;;;;;;5068498;28;20047;-81
2021/12/30 08:29:50;;;;;;;18.15;5.25;;;;;;;;;;5068183;28;20047;-84
2021/12/30 08:32:16;;;;;;;18.58;4.63;;;;;;;;;;5068175;28;20063;-83
2021/12/30 08:34:43;;;;;;;13.35;3.85;;;;;;;;;;5068078;28;20052;-82
2021/12/30 08:37:10;;;;;;;15.45;4.15;;;;;;;;;;5068894;28;20131;-77
2021/12/30 08:39:37;;;;;;;17.60;4.10;;;;;;;;;;5068267;28;20045;-77
2021/12/30 08:42:03;;;;;;;18.00;4.03;;;;;;;;;;5051025;28;20048;-78
2021/12/30 08:44:30;;;;;;;14.98;4.07;;;;;;;;;;5068416;28;20561;-77
2021/12/30 08:46:56;;;;;;;13.85;3.63;;;;;;;;;;5051330;28;20072;-83
2021/12/30 08:49:22;;;;;;;12.48;4.10;;;;;;;;;;5051406;28;20048;-82
2021/12/30 08:51:48;;;;;;;14.05;4.10;;;;;;;;;;5068179;28;20032;-85
2021/12/30 08:54:15;;;;;;;12.20;4.22;;;;;;;;;;5068332;28;20056;-83
2021/12/30 08:56:41;;;;;;;14.48;4.00;;;;;;;;;;5069994;28;20051;-78
2021/12/30 08:59:07;;;;;;;13.75;4.10;;;;;;;;;;5067778;28;20132;-78
2021/12/30 09:01:33;;;;;;;12.88;4.78;;;;;;;;;;5051210;28;20044;-85
2021/12/30 09:03:59;;;;;;;13.65;4.75;;;;;;;;;;5068370;28;20047;-77
2021/12/30 09:06:25;;;;;;;15.40;5.03;;;;;;;;;;5072036;28;20056;-82
2021/12/30 09:08:51;;;;;;;14.02;4.78;;;;;;;;;;5072966;28;20041;-82
2021/12/30 09:11:17;;;;;;;15.48;4.72;;;;;;;;;;5071607;28;20044;-82
2021/12/30 09:13:43;;;;;;;13.60;4.70;;;;;;;;;;5071323;28;20059;-78
2021/12/30 09:16:09;;;;;;;13.02;4.60;;;;;;;;;;5071290;28;20127;-84
2021/12/30 09:18:35;;;;;;;15.30;4.45;;;;;;;;;;5071412;28;20512;-77
2021/12/30 09:21:02;;;;;;;14.95;4.35;;;;;;;;;;5054691;28;20044;-83
2021/12/30 09:23:28;;;;;;;16.73;5.30;;;;;;;;;;5055290;28;20032;-82
2021/12/30 09:25:56;;;;;;;13.07;4.13;;;;;;;;;;5071415;28;20101;-83
2021/12/30 09:28:24;;;;;;;12.43;3.90;;;;;;;;;;5071571;28;20047;-78
2021/12/30 09:30:50;;;;;;;14.35;4.45;;;;;;;;;;5054799;28;20040;-77
2021/12/30 09:33:16;;;;;;;17.15;3.92;;;;;;;;;;5071456;28;20040;-83
2021/12/30 09:35:49;;;;;;;19.70;4.13;;;;;;;;;;5071429;28;20044;-83
2021/12/30 09:38:15;;;;;;;14.05;3.60;;;;;;;;;;5054886;28;20079;-82
2021/12/30 09:40:41;;;;;;;12.88;3.25;;;;;;;;;;5071665;28;20555;-78
2021/12/30 09:43:09;;;;;;;14.50;3.28;;;;;;;;;;5037642;28;20044;-77
2021/12/30 09:45:38;;;;;;;18.60;3.58;;;;;;;;;;5071313;28;20053;-77
2021/12/30 09:48:06;;;;;;;18.00;3.78;;;;;;;;;;5071123;28;20048;-77
2021/12/30 09:50:34;;;;;;;20.42;3.72;;;;;;;;;;5072614;28;20071;-77
2021/12/30 09:53:01;;;;;;;20.17;3.67;;;;;;;;;;5070722;28;20124;-78
2021/12/30 09:55:27;;;;;;;16.63;3.90;;;;;;;;;;5054625;28;20040;-77
2021/12/30 09:57:53;;;;;;;16.30;3.92;;;;;;;;;;5070634;28;20052;-77
2021/12/30 10:00:20;;;;;;;14.30;3.25;;;;;;;;;;5071887;28;20282;-77
2021/12/30 10:02:46;;;;;;;14.05;3.45;;;;;;;;;;5070452;28;20097;-78
2021/12/30 10:05:14;;;;;;;13.77;3.53;;;;;;;;;;5072552;28;20573;-77
2021/12/30 10:07:41;;;;;;;21.15;4.00;;;;;;;;;;5072184;28;20399;-77
2021/12/30 10:10:27;;;;;;;16.98;3.47;;;;;;;;;;5070302;28;20047;-78
2021/12/30 10:12:53;;;;;;;19.10;3.47;;;;;;;;;;5070016;28;20049;-77
2021/12/30 10:15:24;;;;;;;17.30;4.15;;;;;;;;;;5069955;28;20060;-77
2021/12/30 10:17:55;;;;;;;16.83;4.40;;;;;;;;;;5070688;28;20545;-81
2021/12/30 10:20:25;;;;;;;21.83;4.40;;;;;;;;;;5070843;28;20550;-83
2021/12/30 10:22:51;;;;;;;23.27;4.75;;;;;;;;;;5053197;28;20037;-78
2021/12/30 10:25:27;;;;;;;23.48;4.30;;;;;;;;;;5070380;28;20283;-82
2021/12/30 10:27:54;;;;;;;25.27;4.97;;;;;;;;;;5053745;28;20362;-78
2021/12/30 10:30:33;;;;;;;22.73;4.78;;;;;;;;;;5071636;28;20041;-79
2021/12/30 10:33:14;;;;;;;27.35;5.45;;;;;;;;;;5070131;28;20040;-79
2021/12/30 10:35:41;;;;;;;30.45;4.93;;;;;;;;;;5070538;28;20138;-82
2021/12/30 10:38:11;;;;;;;28.13;5.00;;;;;;;;;;5053458;28;20127;-83
2021/12/30 10:40:39;;;;;;;32.50;4.82;;;;;;;;;;5071453;28;20487;-81
2021/12/30 10:43:27;;;;;;;32.28;4.75;;;;;;;;;;5052988;28;20044;-84
2021/12/30 10:46:11;;;;;;;29.92;4.60;;;;;;;;;;5070242;28;20041;-81
2021/12/30 10:48:49;;;;;;;28.33;4.80;;;;;;;;;;5070128;28;20047;-81
2021/12/30 10:51:21;;;;;;;29.63;5.57;;;;;;;;;;5069820;28;20044;-76
2021/12/30 10:53:48;;;;;;;27.17;4.55;;;;;;;;;;5070712;28;20048;-78
2021/12/30 10:56:28;;;;;;;36.92;5.35;;;;;;;;;;5052953;28;20117;-77
2021/12/30 10:58:56;;;;;;;25.98;5.78;;;;;;;;;;5069596;28;20047;-82
2021/12/30 11:01:24;;;;;;;30.60;4.68;;;;;;;;;;5052847;28;20044;-78
2021/12/30 11:03:58;;;;;;;40.53;5.93;;;;;;;;;;5069606;28;20040;-78
2021/12/30 11:06:25;;;;;;;24.20;4.15;;;;;;;;;;5053039;28;20040;-78
2021/12/30 11:09:04;;;;;;;30.70;4.57;;;;;;;;;;5070442;28;20055;-80
2021/12/30 11:11:30;;;;;;;19.48;4.57;;;;;;;;;;5069135;28;20099;-76
2021/12/30 11:13:57;;;;;;;36.58;5.47;;;;;;;;;;5069260;28;20056;-77
2021/12/30 11:16:24;;;;;;;28.63;5.63;;;;;;;;;;5069121;28;20052;-79
2021/12/30 11:18:50;;;;;;;26.00;5.00;;;;;;;;;;5069328;28;20123;-78
2021/12/30 11:21:38;;;;;;;32.42;5.25;;;;;;;;;;5070515;28;20040;-78
2021/12/30 11:24:05;;;;;;;25.73;4.13;;;;;;;;;;5068611;28;20076;-83
2021/12/30 11:26:32;;;;;;;39.30;5.63;;;;;;;;;;5052775;28;20515;-82
2021/12/30 11:28:59;;;;;;;33.13;5.00;;;;;;;;;;5069257;28;20468;-80
2021/12/30 11:31:25;;;;;;;29.83;5.13;;;;;;;;;;5068848;28;20124;-80
2021/12/30 11:33:52;;;;;;;26.65;4.35;;;;;;;;;;5068906;28;20050;-78
2021/12/30 11:36:18;;;;;;;28.30;4.88;;;;;;;;;;5070530;28;20094;-77
2021/12/30 11:38:45;;;;;;;28.42;4.57;;;;;;;;;;5068923;28;20131;-77
2021/12/30 11:41:21;;;;;;;29.40;5.07;;;;;;;;;;5051983;28;20087;-78
2021/12/30 11:43:49;;;;;;;25.45;5.05;;;;;;;;;;5068298;28;20491;-79
2021/12/30 11:46:34;;;;;;;30.55;5.13;;;;;;;;;;5069211;28;20424;-77
2021/12/30 11:49:01;;;;;;;26.05;4.13;;;;;;;;;;5069112;28;20040;-77
2021/12/30 11:51:41;;;;;;;27.58;4.55;;;;;;;;;;5052167;28;20105;-82
2021/12/30 11:54:27;;;;;;;28.13;4.95;;;;;;;;;;5068279;28;20044;-77
2021/12/30 11:57:22;;;;;;;27.80;5.32;;;;;;;;;;5068289;28;20048;-78
2021/12/30 11:59:48;;;;;;;33.35;4.53;;;;;;;;;;5051821;28;20052;-78
2021/12/30 12:02:34;;;;;;;30.40;4.13;;;;;;;;;;5068190;28;20102;-79
2021/12/30 12:05:19;;;;;;;28.13;4.28;;;;;;;;;;5067892;28;20045;-79
2021/12/30 12:08:01;;;;;;;28.15;4.07;;;;;;;;;;5051636;28;20051;-79
2021/12/30 12:10:27;;;;;;;28.98;4.65;;;;;;;;;;5052062;28;20120;-80
2021/12/30 12:12:53;;;;;;;22.30;4.53;;;;;;;;;;5067885;28;20413;-79
2021/12/30 12:15:20;;;;;;;28.10;4.45;;;;;;;;;;5068387;28;20123;-77
2021/12/30 12:17:46;;;;;;;24.58;4.40;;;;;;;;;;5067733;28;20040;-77
2021/12/30 12:20:18;;;;;;;26.13;4.50;;;;;;;;;;5051598;28;20072;-81
2021/12/30 12:22:44;;;;;;;29.73;4.53;;;;;;;;;;5068133;28;20037;-79
2021/12/30 12:25:22;;;;;;;25.63;4.60;;;;;;;;;;5051348;28;20049;-79
2021/12/30 12:27:53;;;;;;;25.27;4.90;;;;;;;;;;5069315;28;20037;-77
2021/12/30 12:30:35;;;;;;;26.77;4.88;;;;;;;;;;5051337;28;20067;-79
2021/12/30 12:33:21;;;;;;;28.23;5.30;;;;;;;;;;5067619;28;20143;-78
2021/12/30 12:35:47;;;;;;;35.10;4.90;;;;;;;;;;5067759;28;20098;-79
2021/12/30 12:38:14;;;;;;;24.35;4.90;;;;;;;;;;5051780;28;20060;-78
2021/12/30 12:40:41;;;;;;;24.52;3.85;;;;;;;;;;5071849;28;20503;-78
2021/12/30 12:43:15;;;;;;;22.15;4.07;;;;;;;;;;5071789;28;20080;-78
2021/12/30 12:45:53;;;;;;;24.48;4.38;;;;;;;;;;5072152;28;20058;-79
2021/12/30 12:48:21;;;;;;;20.42;4.43;;;;;;;;;;5071918;28;20343;-80
2021/12/30 12:50:52;;;;;;;26.52;4.05;;;;;;;;;;5071963;28;20447;-79
2021/12/30 12:53:22;;;;;;;20.65;4.70;;;;;;;;;;5071944;28;20036;-78
2021/12/30 12:55:49;;;;;;;27.02;4.70;;;;;;;;;;5071856;28;20048;-79
2021/12/30 12:58:18;;;;;;;25.25;4.25;;;;;;;;;;5071627;28;20098;-79
2021/12/30 13:00:44;;;;;;;26.45;4.40;;;;;;;;;;5072090;28;20048;-79
2021/12/30 13:03:10;;;;;;;27.30;4.40;;;;;;;;;;5072507;28;20396;-80
2021/12/30 13:05:36;;;;;;;24.17;4.45;;;;;;;;;;5071431;28;20070;-79
2021/12/30 13:08:03;;;;;;;27.77;5.55;;;;;;;;;;5072557;28;20127;-79
2021/12/30 13:10:29;;;;;;;27.65;4.75;;;;;;;;;;5071719;28;20127;-80
2021/12/30 13:13:01;;;;;;;22.38;4.53;;;;;;;;;;5070883;28;20056;-81
2021/12/30 13:15:27;;;;;;;27.10;4.70;;;;;;;;;;5072755;28;20075;-81
2021/12/30 13:17:57;;;;;;;26.33;5.00;;;;;;;;;;5070708;28;20040;-81
2021/12/30 13:20:27;;;;;;;28.10;4.85;;;;;;;;;;5072441;28;20044;-79
2021/12/30 13:22:56;;;;;;;29.42;5.20;;;;;;;;;;5071038;28;20120;-79
2021/12/30 13:25:22;;;;;;;29.42;5.68;;;;;;;;;;5071299;28;20481;-79
2021/12/30 13:27:49;;;;;;;25.60;5.38;;;;;;;;;;5071546;28;20052;-79
2021/12/30 13:30:17;;;;;;;26.05;4.70;;;;;;;;;;5054382;28;20105;-80
2021/12/30 13:32:46;;;;;;;30.73;5.57;;;;;;;;;;5071161;28;20131;-79
2021/12/30 13:35:16;;;;;;;25.35;4.80;;;;;;;;;;5071982;28;20040;-79
2021/12/30 13:37:46;;;;;;;33.80;5.15;;;;;;;;;;5054852;28;20124;-79
2021/12/30 13:40:17;;;;;;;24.90;4.63;;;;;;;;;;5072546;28;20048;-79
2021/12/30 13:42:48;;;;;;;23.95;4.75;;;;;;;;;;5055508;28;20036;-80
2021/12/30 13:45:14;;;;;;;25.02;4.72;;;;;;;;;;5071762;28;20044;-80
2021/12/30 13:47:40;;;;;;;29.27;5.43;;;;;;;;;;5055094;28;20040;-80
2021/12/30 13:50:08;;;;;;;31.35;4.82;;;;;;;;;;5054121;28;20059;-80
2021/12/30 13:52:36;;;;;;;28.25;5.50;;;;;;;;;;5053761;28;20131;-80
2021/12/30 13:55:08;;;;;;;24.55;5.03;;;;;;;;;;5071207;28;20066;-79
2021/12/30 13:57:35;;;;;;;23.65;4.95;;;;;;;;;;5054847;28;20095;-78
2021/12/30 14:00:01;;;;;;;28.73;5.45;;;;;;;;;;5070484;28;20278;-80
2021/12/30 14:02:27;;;;;;;26.42;4.85;;;;;;;;;;5070864;28;20051;-80
2021/12/30 14:05:03;;;;;;;27.90;4.82;;;;;;;;;;5071687;28;20045;-79
2021/12/30 14:07:29;;;;;;;;;;;;;;;;;;5071649;28;20049;-80
2021/12/30 14:09:57;;;;;;;28.83;7.22;;;;;;;;;;5053686;28;20232;-79
2021/12/30 14:12:23;;;;;;;18.88;5.18;;;;;;;;;;5053973;28;20110;-81
2021/12/30 14:14:49;;;;;;;30.45;13.25;;;;;;;;;;5071055;28;20101;-81
2021/12/30 14:17:17;;;;;;;24.42;6.90;;;;;;;;;;5054097;28;20044;-81
2021/12/30 14:19:49;;;;;;;21.42;4.80;;;;;;;;;;5070464;28;20036;-80
2021/12/30 14:22:15;;;;;;;23.33;5.78;;;;;;;;;;5054147;28;20492;-79
2021/12/30 14:24:41;;;;;;;19.42;4.50;;;;;;;;;;5070583;28;20048;-79
2021/12/30 14:27:18;;;;;;;19.88;5.07;;;;;;;;;;5070284;28;20042;-80
2021/12/30 14:29:45;;;;;;;24.70;5.13;;;;;;;;;;5071472;28;20051;-80